Time;durP1;ratioP1;P1;durP2;ratioP2;P2;SDS_P1;SDS_P2;PMS_P1;PMS_P2;Temp;Humidity;BMP_temperature;BMP_pressure;BME280_temperature;BME280_humidity;BME280_pressure;Samples;Min_cycle;Max_cycle;Signal;HPM_P1;HPM_P2
2021/05/05 00:04:15;;;;;;;3.05;1.60;;;;;;;18.72;36.26;97909.00;4311237;81;28571;-81
2021/05/05 00:10:18;;;;;;;4.70;1.60;;;;;;;18.67;35.95;97906.43;4314236;80;28617;-81
2021/05/05 00:16:20;;;;;;;3.27;1.40;;;;;;;18.62;36.35;97899.20;4317942;82;28630;-81
2021/05/05 00:22:21;;;;;;;2.40;1.67;;;;;;;18.38;37.06;97896.27;4311209;80;28628;-82
2021/05/05 00:28:24;;;;;;;1.77;1.20;;;;;;;18.33;36.89;97890.16;4330323;82;28570;-81
2021/05/05 00:34:26;;;;;;;2.37;1.50;;;;;;;18.41;37.02;97892.67;4222301;83;28684;-81
2021/05/05 00:40:30;;;;;;;3.58;1.60;;;;;;;18.18;37.67;97883.97;4169958;83;28671;-81
2021/05/05 00:46:32;;;;;;;5.53;1.37;;;;;;;18.16;38.28;97883.48;4191192;83;28580;-81
2021/05/05 00:52:35;;;;;;;1.90;1.30;;;;;;;18.06;38.46;97879.65;4164447;84;28585;-81
2021/05/05 00:58:37;;;;;;;2.10;1.30;;;;;;;18.12;38.37;97883.86;4243839;83;28678;-81
2021/05/05 01:04:39;;;;;;;2.60;1.32;;;;;;;18.11;39.40;97878.97;4190415;83;28581;-81
2021/05/05 01:10:44;;;;;;;3.05;1.72;;;;;;;18.00;40.89;97883.02;4205312;83;28595;-81
2021/05/05 01:16:46;;;;;;;2.65;1.50;;;;;;;17.91;40.04;97865.29;4236939;83;28614;-81
2021/05/05 01:22:48;;;;;;;3.02;1.60;;;;;;;17.95;39.70;97868.98;4184805;83;28590;-81
2021/05/05 01:28:50;;;;;;;2.80;1.50;;;;;;;18.06;39.40;97870.12;4160570;84;28605;-83
2021/05/05 01:34:54;;;;;;;2.95;1.40;;;;;;;18.41;38.82;97841.77;4179521;83;28630;-83
2021/05/05 01:40:56;;;;;;;3.05;1.40;;;;;;;18.29;39.14;97850.52;4195882;84;28680;-82
2021/05/05 01:46:59;;;;;;;2.33;1.32;;;;;;;18.30;39.77;97843.15;4204790;84;28578;-83
2021/05/05 01:53:04;;;;;;;2.05;1.30;;;;;;;18.08;40.23;97837.44;4344174;80;28599;-82
2021/05/05 01:59:07;;;;;;;3.12;1.20;;;;;;;18.08;40.37;97834.72;4257432;82;28612;-82
2021/05/05 02:05:10;;;;;;;2.77;1.35;;;;;;;18.08;40.39;97833.91;4161716;84;28596;-82
2021/05/05 02:11:15;;;;;;;4.20;1.52;;;;;;;18.08;40.11;97834.72;4216863;84;28620;-82
2021/05/05 02:17:18;;;;;;;2.05;1.17;;;;;;;18.02;40.91;97828.33;4317891;81;28634;-81
2021/05/05 02:23:22;;;;;;;5.03;1.47;;;;;;;18.03;41.08;97825.31;4315024;82;28638;-81
2021/05/05 02:29:25;;;;;;;3.70;2.37;;;;;;;17.94;41.10;97823.06;4297876;82;28588;-82
2021/05/05 02:35:29;;;;;;;2.17;1.30;;;;;;;17.96;42.44;97813.48;4288069;82;28674;-83
2021/05/05 02:41:34;;;;;;;1.80;1.20;;;;;;;17.97;42.13;97812.38;4301922;82;28610;-83
2021/05/05 02:47:37;;;;;;;2.85;1.30;;;;;;;17.80;43.37;97803.55;4314369;82;28607;-82
2021/05/05 02:53:40;;;;;;;4.22;1.32;;;;;;;17.36;43.98;97797.77;4300727;82;28585;-82
2021/05/05 02:59:42;;;;;;;1.95;1.30;;;;;;;17.69;42.91;97785.89;4313733;82;28612;-81
2021/05/05 03:05:44;;;;;;;2.22;1.47;;;;;;;17.60;43.74;97781.75;4317924;82;28577;-81
2021/05/05 03:11:47;;;;;;;4.97;1.45;;;;;;;18.00;42.51;97789.75;4349228;81;28668;-81
2021/05/05 03:17:49;;;;;;;3.00;1.40;;;;;;;17.73;42.52;97790.94;4325446;81;28674;-81
2021/05/05 03:23:51;;;;;;;2.20;1.30;;;;;;;17.76;42.55;97795.78;4305851;81;28618;-81
2021/05/05 03:29:53;;;;;;;2.77;1.50;;;;;;;17.94;42.74;97792.61;4324080;81;28584;-81
2021/05/05 03:35:56;;;;;;;3.15;1.20;;;;;;;17.81;42.14;97782.62;4337059;81;28552;-81
2021/05/05 03:41:58;;;;;;;3.15;1.40;;;;;;;18.00;42.45;97778.33;4302900;81;28572;-82
2021/05/05 03:48:00;;;;;;;4.45;1.50;;;;;;;17.62;43.44;97774.64;4344824;81;28574;-82
2021/05/05 03:54:02;;;;;;;2.72;1.40;;;;;;;17.86;42.83;97777.58;4319324;81;28587;-81
2021/05/05 04:00:07;;;;;;;3.60;1.40;;;;;;;18.10;41.38;97774.02;4314440;81;28579;-82
2021/05/05 04:06:11;;;;;;;2.15;1.40;;;;;;;18.15;41.20;97781.78;4315155;81;28624;-82
2021/05/05 04:12:13;;;;;;;2.35;1.40;;;;;;;18.24;41.29;97786.17;4354276;81;28654;-83
2021/05/05 04:18:15;;;;;;;2.08;1.45;;;;;;;18.20;42.27;97785.74;4353696;81;28597;-82
2021/05/05 04:24:36;;;;;;;4.75;1.40;;;;;;;18.21;42.31;97788.70;4169972;84;28586;-81
2021/05/05 04:30:39;;;;;;;3.55;1.55;;;;;;;18.39;41.62;97785.50;4210134;84;28676;-81
2021/05/05 04:36:41;;;;;;;5.37;1.70;;;;;;;18.41;41.50;97778.39;4167572;84;28669;-81
2021/05/05 04:42:43;;;;;;;6.30;1.60;;;;;;;18.44;41.99;97781.30;4179632;84;28678;-82
2021/05/05 04:48:45;;;;;;;4.72;1.57;;;;;;;18.60;42.96;97787.12;4200573;84;28578;-83
2021/05/05 04:54:47;;;;;;;2.12;1.32;;;;;;;18.70;41.58;97782.50;4173195;83;28615;-83
2021/05/05 05:00:49;;;;;;;2.52;1.45;;;;;;;18.47;44.86;97785.28;4175560;84;28644;-81
2021/05/05 05:06:51;;;;;;;3.27;1.30;;;;;;;18.82;44.15;97773.16;4185004;84;28617;-81
2021/05/05 05:12:55;;;;;;;5.17;1.50;;;;;;;19.00;41.88;97784.08;4248108;82;28622;-82
2021/05/05 05:18:57;;;;;;;3.20;1.55;;;;;;;19.31;40.87;97789.98;4260892;82;28615;-82
2021/05/05 05:24:59;;;;;;;3.15;1.55;;;;;;;19.61;40.00;97796.42;4323228;81;28610;-80
2021/05/05 05:31:01;;;;;;;14.07;2.12;;;;;;;19.72;39.51;97796.88;4338889;81;28564;-81
2021/05/05 05:37:03;;;;;;;3.50;1.60;;;;;;;19.74;39.39;97801.47;4331199;81;28690;-81
2021/05/05 05:43:05;;;;;;;3.05;1.50;;;;;;;19.85;38.89;97807.38;4342441;81;28635;-82
2021/05/05 05:49:08;;;;;;;3.05;1.42;;;;;;;20.15;38.22;97808.06;4348801;81;28582;-83
2021/05/05 05:55:15;;;;;;;3.30;1.50;;;;;;;20.47;38.00;97806.69;4196503;84;28665;-82
2021/05/05 06:01:17;;;;;;;;;;;;;;;20.58;37.40;97804.41;4191125;84;28591;-83
2021/05/05 06:07:19;;;;;;;4.25;1.70;;;;;;;20.86;36.84;97801.23;4267618;82;20219;-83
2021/05/05 06:13:22;;;;;;;3.60;1.50;;;;;;;21.14;36.79;97796.65;4352027;81;28591;-82
2021/05/05 06:19:24;;;;;;;5.60;1.60;;;;;;;21.56;36.03;97789.59;4359763;81;28575;-83
2021/05/05 06:25:26;;;;;;;2.90;1.77;;;;;;;21.62;35.89;97792.91;4354572;81;28660;-82
2021/05/05 06:31:29;;;;;;;4.40;1.75;;;;;;;21.47;35.67;97792.41;4326615;81;28659;-82
2021/05/05 06:37:31;;;;;;;3.80;1.45;;;;;;;21.82;35.42;97779.80;4333534;81;28566;-83
2021/05/05 06:43:36;;;;;;;4.03;1.90;;;;;;;21.99;35.39;97781.56;4323307;81;28572;-82
2021/05/05 06:49:59;;;;;;;3.52;1.77;;;;;;;21.83;34.78;97763.62;4191552;84;28601;-83
2021/05/05 06:56:01;;;;;;;3.40;2.00;;;;;;;22.50;34.11;97757.84;4185634;84;28626;-82
2021/05/05 07:02:04;;;;;;;5.40;1.77;;;;;;;23.00;33.01;97746.27;4210790;84;28578;-83
2021/05/05 07:08:06;;;;;;;3.77;1.60;;;;;;;22.50;32.46;97744.94;4217119;84;28665;-82
2021/05/05 07:14:08;;;;;;;2.02;1.27;;;;;;;22.90;32.60;97723.45;4212587;83;28594;-83
2021/05/05 07:20:12;;;;;;;2.60;1.47;;;;;;;22.67;31.82;97712.98;4194258;83;28602;-82
2021/05/05 07:26:16;;;;;;;3.25;1.42;;;;;;;22.63;32.57;97716.16;4184296;84;28608;-84
2021/05/05 07:32:19;;;;;;;4.37;1.50;;;;;;;22.73;32.65;97712.95;4188316;84;28573;-84
2021/05/05 07:50:49;;;;;;;2.85;1.20;;;;;;;23.02;31.08;97671.93;4483613;78;28618;-84
2021/05/05 07:56:52;;;;;;;1.40;1.15;;;;;;;23.62;30.44;97678.88;4485547;78;28563;-84
2021/05/05 08:02:53;;;;;;;3.47;1.17;;;;;;;23.70;29.46;97680.45;4517132;78;28601;-84
2021/05/05 08:08:57;;;;;;;3.30;1.30;;;;;;;23.63;29.81;97679.10;4506335;78;28598;-85
2021/05/05 08:14:59;;;;;;;4.70;1.27;;;;;;;23.56;29.45;97679.49;4379965;80;28591;-83
2021/05/05 08:21:08;;;;;;;3.75;1.60;;;;;;;23.75;28.84;97668.64;4354462;80;28607;-82
2021/05/05 08:27:10;;;;;;;4.28;1.50;;;;;;;23.80;29.08;97667.58;4369221;80;28579;-82
2021/05/05 08:33:13;;;;;;;2.47;1.47;;;;;;;23.85;29.63;97660.44;4352637;81;28574;-82
2021/05/05 08:39:15;;;;;;;2.37;1.40;;;;;;;23.32;30.45;97657.32;4326822;80;28696;-82
2021/05/05 08:45:22;;;;;;;3.42;1.50;;;;;;;23.35;30.51;97648.97;4311800;81;28624;-82
2021/05/05 08:51:24;;;;;;;2.30;1.30;;;;;;;23.36;30.28;97641.75;4389387;79;28608;-82
2021/05/05 08:57:27;;;;;;;2.52;1.60;;;;;;;23.27;30.71;97624.63;4392583;80;28583;-83
2021/05/05 09:03:35;;;;;;;1.75;1.30;;;;;;;23.86;30.96;97615.39;4388784;80;28572;-82
2021/05/05 09:09:44;;;;;;;5.65;1.50;;;;;;;24.04;30.35;97610.34;4376974;80;28594;-87
2021/05/05 09:15:46;;;;;;;3.00;1.45;;;;;;;24.19;29.89;97603.24;4387809;80;28648;-86
2021/05/05 09:21:52;;;;;;;2.72;1.60;;;;;;;24.30;30.05;97603.50;4353928;80;28591;-83
2021/05/05 09:28:11;;;;;;;4.00;2.00;;;;;;;24.58;29.00;97591.55;4404521;79;34095;-82
2021/05/05 09:34:13;;;;;;;3.60;1.77;;;;;;;24.50;29.80;97580.19;4391636;79;29041;-83
2021/05/05 09:40:15;;;;;;;3.72;1.90;;;;;;;24.73;29.46;97571.23;4398195;80;28589;-84
2021/05/05 09:46:44;;;;;;;4.20;1.75;;;;;;;24.80;29.58;97559.61;4398534;81;28595;-86
2021/05/05 09:52:49;;;;;;;2.80;1.70;;;;;;;25.02;28.24;97551.20;4385753;80;28596;-88
2021/05/05 09:58:51;;;;;;;3.45;1.60;;;;;;;25.20;28.79;97540.53;4394580;79;28659;-83
2021/05/05 10:05:14;;;;;;;5.03;1.90;;;;;;;26.03;28.44;97533.64;4397292;80;28569;-82
2021/05/05 10:11:25;;;;;;;2.60;1.57;;;;;;;26.02;27.41;97532.63;4414377;80;28649;-83
2021/05/05 10:17:29;;;;;;;3.67;1.60;;;;;;;26.51;27.15;97521.28;4384729;81;28667;-83
2021/05/05 10:23:32;;;;;;;3.02;1.52;;;;;;;27.19;26.87;97514.94;4395979;80;28640;-84
2021/05/05 10:29:39;;;;;;;2.45;1.40;;;;;;;27.18;26.37;97514.73;4398012;80;28578;-83
2021/05/05 10:35:45;;;;;;;2.90;1.50;;;;;;;27.46;25.74;97507.08;4387852;80;28671;-82
2021/05/05 10:42:10;;;;;;;4.92;1.90;;;;;;;27.73;25.84;97503.56;4352532;80;28610;-82
2021/05/05 10:48:18;;;;;;;3.15;1.50;;;;;;;27.39;25.94;97507.82;4339104;80;28603;-82
2021/05/05 10:54:24;;;;;;;3.00;1.50;;;;;;;27.62;25.86;97491.09;4345411;80;28685;-82
2021/05/05 11:00:30;;;;;;;;;;;;;;;27.58;24.86;97476.45;4340568;80;28575;-82
2021/05/05 11:06:41;;;;;;;2.20;1.40;;;;;;;28.45;24.37;97477.53;4359634;81;20400;-83
2021/05/05 11:12:43;;;;;;;2.65;1.50;;;;;;;28.74;24.63;97481.19;4336256;81;28630;-83
2021/05/05 11:18:47;;;;;;;2.42;1.22;;;;;;;28.17;24.02;97473.44;4330533;80;28654;-82
2021/05/05 11:24:51;;;;;;;1.82;1.20;;;;;;;28.78;24.93;97467.34;4332773;81;28597;-82
2021/05/05 11:30:53;;;;;;;1.75;1.22;;;;;;;28.83;23.06;97459.29;4344761;80;28602;-82
2021/05/05 11:37:01;;;;;;;2.22;1.20;;;;;;;28.49;24.84;97457.63;4351852;80;28590;-81
2021/05/05 11:43:21;;;;;;;2.77;1.20;;;;;;;28.05;24.34;97445.58;4367780;80;28622;-81
2021/05/05 11:49:39;;;;;;;4.40;1.47;;;;;;;27.13;24.11;97464.84;4371333;80;28623;-82
2021/05/05 11:55:41;;;;;;;5.22;1.77;;;;;;;26.49;25.84;97488.38;4297429;81;28615;-82
2021/05/05 12:01:46;;;;;;;3.55;1.67;;;;;;;24.58;29.66;97504.20;4367844;80;28560;-81
2021/05/05 12:08:06;;;;;;;2.17;1.40;;;;;;;23.51;38.67;97515.98;4380522;80;28596;-81
2021/05/05 12:14:08;;;;;;;3.22;1.60;;;;;;;24.17;33.49;97505.94;4307184;81;28630;-82
2021/05/05 12:20:13;;;;;;;2.92;1.50;;;;;;;24.86;32.95;97486.12;4405771;79;28590;-83
2021/05/05 12:26:32;;;;;;;4.20;1.55;;;;;;;25.32;32.68;97493.59;4380245;80;28606;-84
2021/05/05 12:32:49;;;;;;;3.27;2.15;;;;;;;25.73;30.47;97490.91;4282119;81;28648;-82
2021/05/05 12:38:56;;;;;;;12.98;4.05;;;;;;;23.79;32.73;97514.48;4292940;81;28658;-82
2021/05/05 12:45:13;;;;;;;8.05;3.60;;;;;;;23.11;38.94;97548.65;4355627;80;28634;-82
2021/05/05 12:51:20;;;;;;;8.23;3.60;;;;;;;21.94;44.34;97575.22;4341080;80;28649;-85
2021/05/05 12:57:23;;;;;;;4.92;3.60;;;;;;;21.82;48.63;97617.63;4335208;80;28654;-83
2021/05/05 13:03:26;;;;;;;5.85;2.70;;;;;;;19.60;61.63;97695.87;4352876;81;28576;-82
2021/05/05 13:09:30;;;;;;;5.50;2.50;;;;;;;19.96;60.81;97706.15;4338424;81;28615;-82
2021/05/05 13:34:49;;;;;;;4.30;2.27;;;;;;;17.20;76.20;97892.36;4343308;81;20254;-82
2021/05/05 13:41:01;;;;;;;3.10;2.00;;;;;;;17.30;83.90;97879.69;4358298;81;28611;-82
2021/05/05 13:47:18;;;;;;;3.17;1.90;;;;;;;17.67;72.62;97864.22;4384068;79;28600;-82
2021/05/05 13:53:08;;;;;;;3.90;1.90;;;;;;;18.48;65.33;97856.28;4373754;80;28791;-82
2021/05/05 13:59:10;;;;;;;3.90;1.85;;;;;;;18.29;64.41;97862.77;4361046;80;28609;-83
2021/05/05 14:05:13;;;;;;;2.80;1.70;;;;;;;18.54;66.11;97868.65;4304180;81;28651;-83
2021/05/05 14:11:16;;;;;;;3.52;1.20;;;;;;;17.75;73.68;97869.47;4336814;81;28617;-83
2021/05/05 14:17:18;;;;;;;4.78;2.08;;;;;;;18.59;65.21;97856.28;4390248;80;28633;-82
2021/05/05 14:23:21;;;;;;;3.35;1.52;;;;;;;18.62;68.76;97873.34;4384967;80;28608;-81
2021/05/05 14:29:24;;;;;;;3.22;1.80;;;;;;;18.28;71.27;97854.36;4289907;81;28622;-81
2021/05/05 14:35:29;;;;;;;4.25;2.00;;;;;;;18.38;71.05;97858.72;4379190;80;28615;-81
2021/05/05 14:41:32;;;;;;;3.87;2.00;;;;;;;18.14;72.81;97875.37;4363148;80;28607;-79
2021/05/05 14:53:52;;;;;;;5.22;2.10;;;;;;;18.17;73.89;97852.98;4365027;81;28575;-81
2021/05/05 14:59:54;;;;;;;4.60;2.45;;;;;;;18.29;76.28;97856.51;4350261;80;28569;-82
2021/05/05 15:06:00;;;;;;;3.80;2.47;;;;;;;18.32;74.21;97861.32;4338664;81;28588;-82
2021/05/05 15:36:42;;;;;;;3.67;2.47;;;;;;;17.88;78.94;97841.98;4353982;80;28696;-82
2021/05/05 15:42:45;;;;;;;5.03;2.72;;;;;;;17.49;79.04;97847.75;4325736;81;28649;-82
2021/05/05 15:48:47;;;;;;;4.75;2.52;;;;;;;17.46;79.33;97832.61;4335321;80;28578;-81
2021/05/05 15:54:51;;;;;;;4.17;2.20;;;;;;;17.31;80.85;97820.17;4348699;81;28546;-81
2021/05/05 16:00:59;;;;;;;4.03;1.77;;;;;;;17.67;75.01;97805.20;4341737;80;28587;-82
2021/05/05 16:51:38;;;;;;;5.25;2.47;;;;;;;17.42;72.50;97754.98;4462558;78;28924;-82
2021/05/05 17:09:56;;;;;;;4.80;2.47;;;;;;;16.64;71.98;97814.17;4278324;80;28583;-79
2021/05/05 17:15:59;;;;;;;6.28;2.62;;;;;;;16.79;71.60;97841.56;4328723;80;28690;-80
2021/05/05 17:22:07;;;;;;;5.92;2.77;;;;;;;16.69;70.36;97816.80;4314695;80;28612;-84
2021/05/05 18:00:32;;;;;;;8.40;4.00;;;;;;;16.59;66.63;97872.88;4315111;80;28545;-83
2021/05/05 18:12:16;;;;;;;7.33;3.70;;;;;;;16.57;60.26;97881.05;4328078;80;28584;-81
2021/05/05 18:24:20;;;;;;;7.78;3.65;;;;;;;16.32;58.92;97893.97;4331651;81;28610;-81
2021/05/05 18:30:21;;;;;;;9.73;3.30;;;;;;;16.27;57.77;97917.09;4314206;80;28595;-82
2021/05/05 18:36:25;;;;;;;7.90;3.50;;;;;;;16.44;57.65;97939.05;4335878;82;28611;-80
2021/05/05 18:42:32;;;;;;;5.92;2.67;;;;;;;16.49;55.34;97951.73;4325533;80;28599;-81
2021/05/05 19:46:36;;;;;;;4.95;2.20;;;;;;;14.95;55.64;98023.03;4292536;82;28576;-84
2021/05/05 20:49:27;;;;;;;2.47;1.00;;;;;;;13.76;64.00;98101.06;4596588;76;65286;-80
2021/05/05 22:28:08;;;;;;;6.85;2.75;;;;;;;12.82;71.37;98193.95;4515642;78;28605;-80
2021/05/05 23:15:14;;;;;;;6.90;3.08;;;;;;;12.14;77.29;98227.94;4506378;78;28608;-80
2021/05/05 23:26:41;;;;;;;7.72;2.83;;;;;;;11.61;75.40;98235.90;4476574;78;28638;-81
2021/05/05 23:33:05;;;;;;;4.22;1.80;;;;;;;11.60;70.45;98248.53;4512495;78;29025;-79
